Time;durP1;ratioP1;P1;durP2;ratioP2;P2;SDS_P1;SDS_P2;PMS_P1;PMS_P2;Temp;Humidity;BMP_temperature;BMP_pressure;BME280_temperature;BME280_humidity;BME280_pressure;Samples;Min_cycle;Max_cycle;Signal;HPM_P1;HPM_P2
2022/06/30 00:02:18;;;;;;;2.83;1.90;;;;;;;18.29;44.05;101350.06;5016300;28;20099;-79
2022/06/30 00:04:44;;;;;;;2.78;2.10;;;;;;;18.19;43.91;101349.84;4997533;28;20045;-78
2022/06/30 00:07:09;;;;;;;2.03;1.77;;;;;;;18.17;44.03;101338.47;5004095;28;21347;-78
2022/06/30 00:09:35;;;;;;;7.35;1.70;;;;;;;18.21;43.68;101346.13;4998490;28;20684;-75
2022/06/30 00:12:07;;;;;;;3.85;1.75;;;;;;;18.16;43.46;101342.03;4983478;28;20037;-78
2022/06/30 00:14:32;;;;;;;1.88;1.67;;;;;;;18.21;43.38;101340.00;4984795;28;20427;-78
2022/06/30 00:16:58;;;;;;;1.90;1.70;;;;;;;18.21;43.34;101343.50;5002166;28;20042;-76
2022/06/30 00:19:24;;;;;;;1.80;1.70;;;;;;;18.14;43.30;101343.94;5000994;28;20080;-76
2022/06/30 00:21:50;;;;;;;2.58;2.05;;;;;;;18.20;43.25;101354.16;5000854;28;20037;-79
2022/06/30 00:24:19;;;;;;;2.15;1.95;;;;;;;18.16;43.21;101350.84;5002478;28;20050;-77
2022/06/30 00:26:44;;;;;;;4.43;1.60;;;;;;;18.11;43.23;101352.91;4985390;28;20426;-77
2022/06/30 00:29:11;;;;;;;2.38;1.85;;;;;;;18.04;43.11;101355.13;5015444;28;20286;-78
2022/06/30 00:31:37;;;;;;;4.25;1.80;;;;;;;18.03;43.29;101349.94;5003311;28;20053;-76
2022/06/30 00:34:03;;;;;;;2.67;1.45;;;;;;;17.86;43.15;101345.72;4996961;28;20040;-76
2022/06/30 00:36:29;;;;;;;2.55;2.35;;;;;;;17.90;42.90;101351.66;5003600;28;20188;-79
2022/06/30 00:38:55;;;;;;;2.63;1.60;;;;;;;17.87;42.86;101357.97;5014479;28;20042;-78
2022/06/30 00:41:21;;;;;;;2.92;2.20;;;;;;;17.69;43.04;101348.56;4996183;28;20770;-80
2022/06/30 00:43:47;;;;;;;2.28;2.08;;;;;;;17.72;42.72;101353.69;4996630;28;20117;-78
2022/06/30 00:46:14;;;;;;;3.55;1.55;;;;;;;17.61;42.83;101354.34;4985367;28;20800;-77
2022/06/30 00:48:41;;;;;;;3.05;1.75;;;;;;;17.73;42.26;101342.16;4998951;28;20644;-78
2022/06/30 00:51:07;;;;;;;2.40;1.63;;;;;;;17.72;42.53;101346.59;4986639;28;20034;-78
2022/06/30 00:53:38;;;;;;;3.30;2.17;;;;;;;17.73;42.31;101348.28;4999498;28;20776;-78
2022/06/30 00:56:07;;;;;;;2.17;1.50;;;;;;;17.63;42.39;101339.25;4999731;28;20030;-78
2022/06/30 00:58:44;;;;;;;3.60;1.50;;;;;;;17.71;42.35;101336.09;5002342;28;20042;-77
2022/06/30 01:01:12;;;;;;;2.00;1.35;;;;;;;17.72;41.93;101338.66;4997197;28;20037;-80
2022/06/30 01:03:38;;;;;;;2.53;2.17;;;;;;;17.58;42.37;101342.19;4995867;28;20042;-77
2022/06/30 01:06:05;;;;;;;7.32;2.13;;;;;;;17.64;41.83;101336.50;4996694;28;20031;-78
2022/06/30 01:08:32;;;;;;;2.17;1.63;;;;;;;17.61;42.00;101334.06;4982957;28;20077;-80
2022/06/30 01:14:05;;;;;;;2.22;1.70;;;;;;;17.52;41.64;101331.97;5015434;28;20034;-80
2022/06/30 01:17:02;;;;;;;3.08;1.50;;;;;;;17.45;41.35;101322.72;5003172;28;20033;-77
2022/06/30 01:19:28;;;;;;;4.28;0.98;;;;;;;17.32;41.87;101325.25;4998069;28;20137;-79
2022/06/30 01:22:03;;;;;;;2.03;1.25;;;;;;;17.32;41.62;101324.41;4996539;28;20125;-78
2022/06/30 01:24:29;;;;;;;2.33;1.58;;;;;;;17.33;41.58;101323.47;4986582;28;20145;-80
2022/06/30 01:26:56;;;;;;;2.15;1.17;;;;;;;17.27;41.66;101324.69;4996136;28;20083;-77
2022/06/30 01:29:22;;;;;;;1.85;1.40;;;;;;;17.32;41.50;101324.41;5016345;28;20088;-77
2022/06/30 01:31:48;;;;;;;2.83;1.25;;;;;;;17.27;41.17;101318.53;5004247;28;20038;-78
2022/06/30 01:34:13;;;;;;;3.75;1.05;;;;;;;17.13;41.25;101314.13;4999160;28;20038;-79
2022/06/30 01:36:39;;;;;;;1.40;0.90;;;;;;;17.31;40.81;101318.25;5018367;28;20037;-75
2022/06/30 01:39:04;;;;;;;1.27;1.05;;;;;;;17.11;40.71;101327.41;4983586;28;20061;-78
2022/06/30 01:41:30;;;;;;;2.47;1.48;;;;;;;17.40;40.01;101319.50;5003158;28;20044;-78
2022/06/30 01:43:55;;;;;;;0.85;0.60;;;;;;;17.38;39.83;101318.72;4985409;28;20069;-78
2022/06/30 01:46:21;;;;;;;1.85;1.05;;;;;;;17.33;39.76;101321.66;5004741;28;20420;-77
2022/06/30 01:48:47;;;;;;;2.00;1.55;;;;;;;17.34;40.02;101327.81;5004023;28;20129;-80
2022/06/30 01:51:12;;;;;;;5.68;0.98;;;;;;;17.36;39.48;101324.13;5002894;28;20038;-77
2022/06/30 01:53:37;;;;;;;1.63;1.15;;;;;;;17.30;39.90;101326.31;5000126;28;20049;-78
2022/06/30 01:56:03;;;;;;;2.28;1.35;;;;;;;17.32;39.71;101324.41;5002465;28;20026;-78
2022/06/30 01:58:28;;;;;;;1.25;0.70;;;;;;;17.31;40.08;101322.69;5001882;28;20048;-76
2022/06/30 02:00:54;;;;;;;2.22;1.05;;;;;;;17.27;39.89;101321.19;5002135;28;20133;-78
2022/06/30 02:03:19;;;;;;;1.63;0.95;;;;;;;17.24;40.16;101315.16;5001144;28;20049;-80
2022/06/30 02:05:45;;;;;;;3.63;1.17;;;;;;;17.27;40.21;101311.50;4985683;28;20112;-75
2022/06/30 02:08:11;;;;;;;2.10;0.80;;;;;;;17.22;40.26;101309.13;5016516;28;20098;-78
2022/06/30 02:10:36;;;;;;;4.15;1.13;;;;;;;17.14;40.57;101313.19;5000156;28;20391;-78
2022/06/30 02:13:05;;;;;;;2.00;1.05;;;;;;;17.03;40.85;101308.56;4976920;28;20061;-78
2022/06/30 02:15:34;;;;;;;1.60;0.93;;;;;;;16.98;40.75;101306.19;4997965;28;20029;-77
2022/06/30 02:18:02;;;;;;;1.23;0.77;;;;;;;16.95;40.63;101300.22;4994854;28;20044;-78
2022/06/30 02:20:28;;;;;;;2.20;1.20;;;;;;;16.94;40.73;101303.84;4983557;28;20062;-77
2022/06/30 02:22:56;;;;;;;1.20;0.90;;;;;;;16.89;40.72;101304.09;4993882;28;20637;-77
2022/06/30 02:25:24;;;;;;;6.32;0.88;;;;;;;16.81;40.91;101301.91;4999926;28;20046;-77
2022/06/30 02:27:50;;;;;;;3.30;0.93;;;;;;;16.77;40.96;101308.31;5011950;28;20042;-77
2022/06/30 02:30:16;;;;;;;1.15;0.90;;;;;;;16.92;40.67;101301.28;4997362;28;20091;-78
2022/06/30 02:32:42;;;;;;;2.20;1.48;;;;;;;16.92;40.74;101300.44;4993987;28;20206;-79
2022/06/30 02:35:08;;;;;;;1.90;0.95;;;;;;;16.82;41.10;101293.06;4997969;28;20586;-78
2022/06/30 02:37:34;;;;;;;2.00;0.90;;;;;;;16.89;40.78;101284.75;4982196;28;20040;-77
2022/06/30 02:39:59;;;;;;;2.53;1.00;;;;;;;16.89;40.83;101288.28;4996462;28;20229;-76
2022/06/30 02:42:25;;;;;;;1.92;1.20;;;;;;;16.73;40.77;101279.53;4996988;28;20044;-76
2022/06/30 02:44:50;;;;;;;5.55;1.25;;;;;;;16.80;41.12;101286.16;4994194;28;20526;-76
2022/06/30 02:47:16;;;;;;;7.35;1.60;;;;;;;16.81;40.79;101285.22;4998293;28;20060;-78
2022/06/30 02:49:41;;;;;;;1.50;1.17;;;;;;;16.74;41.06;101292.63;5011201;28;20056;-77
2022/06/30 02:52:07;;;;;;;1.40;1.15;;;;;;;16.60;41.51;101292.63;4996130;28;20125;-77
2022/06/30 02:54:33;;;;;;;3.53;1.20;;;;;;;16.65;41.23;101295.81;4982194;28;20069;-76
2022/06/30 02:56:59;;;;;;;6.30;1.15;;;;;;;16.55;41.63;101289.38;4997518;28;20518;-76
2022/06/30 02:59:25;;;;;;;1.45;1.10;;;;;;;16.50;41.56;101294.91;5014132;28;20056;-76
2022/06/30 03:01:50;;;;;;;1.90;0.85;;;;;;;16.59;41.44;101289.09;5001074;28;20041;-77
2022/06/30 03:04:16;;;;;;;2.38;1.10;;;;;;;16.51;41.81;101290.50;4996251;28;20038;-77
2022/06/30 03:06:41;;;;;;;1.77;1.33;;;;;;;16.51;41.67;101295.75;4996211;28;20543;-77
2022/06/30 03:09:07;;;;;;;1.70;1.13;;;;;;;16.47;41.67;101296.91;5005526;28;20552;-78
2022/06/30 03:11:33;;;;;;;4.75;1.90;;;;;;;16.39;41.98;101292.91;5001435;28;20029;-78
2022/06/30 03:13:58;;;;;;;1.75;1.35;;;;;;;16.33;41.83;101298.56;4994659;28;20049;-78
2022/06/30 03:16:24;;;;;;;2.65;1.30;;;;;;;16.40;41.59;101299.91;4999888;28;20028;-76
2022/06/30 03:18:49;;;;;;;2.38;1.40;;;;;;;16.30;41.71;101298.72;4994044;28;20049;-79
2022/06/30 03:21:15;;;;;;;2.72;1.08;;;;;;;16.43;41.43;101293.59;4983258;28;20746;-77
2022/06/30 03:23:40;;;;;;;3.90;1.40;;;;;;;16.47;41.42;101302.19;4981817;28;20042;-75
2022/06/30 03:26:06;;;;;;;3.40;1.13;;;;;;;16.55;41.09;101289.38;4998777;28;20484;-76
2022/06/30 03:28:32;;;;;;;1.23;0.90;;;;;;;16.52;41.01;101303.59;4997439;28;20111;-77
2022/06/30 03:30:58;;;;;;;2.03;1.10;;;;;;;16.50;41.08;101300.19;4994188;28;20061;-76
2022/06/30 03:33:25;;;;;;;1.52;0.82;;;;;;;16.50;41.22;101299.34;4998627;28;20536;-76
2022/06/30 03:35:51;;;;;;;2.22;1.00;;;;;;;16.52;41.36;101294.84;4997159;28;20066;-76
2022/06/30 03:38:16;;;;;;;4.20;1.38;;;;;;;16.47;41.42;101299.56;5001160;28;20042;-76
2022/06/30 03:40:42;;;;;;;6.05;1.73;;;;;;;16.44;41.67;101294.44;4981136;28;20192;-77
2022/06/30 03:43:08;;;;;;;2.88;2.05;;;;;;;16.45;41.51;101294.34;4994378;28;20041;-78
2022/06/30 03:45:34;;;;;;;1.90;1.40;;;;;;;16.31;41.85;101295.16;4997310;28;20042;-80
2022/06/30 03:48:01;;;;;;;3.17;1.45;;;;;;;16.30;41.83;101296.09;4995241;28;20095;-78
2022/06/30 03:50:27;;;;;;;2.63;1.30;;;;;;;16.36;41.94;101293.09;4982722;28;20034;-77
2022/06/30 03:52:53;;;;;;;4.03;1.30;;;;;;;16.30;41.95;101293.44;4996062;28;20056;-77
2022/06/30 03:55:19;;;;;;;1.88;1.05;;;;;;;16.29;41.90;101286.47;4999918;28;20022;-77
2022/06/30 03:57:46;;;;;;;1.60;1.10;;;;;;;16.28;42.26;101290.03;5010200;28;20042;-77
2022/06/30 04:00:12;;;;;;;2.25;1.33;;;;;;;16.29;42.46;101294.41;4982408;28;20049;-77
2022/06/30 04:02:37;;;;;;;1.75;1.23;;;;;;;16.36;41.99;101298.38;4996951;28;20538;-76
2022/06/30 04:05:04;;;;;;;2.47;1.73;;;;;;;16.34;42.36;101294.13;4998031;28;20026;-78
2022/06/30 04:07:29;;;;;;;2.88;1.20;;;;;;;16.36;42.42;101294.88;5000609;28;20065;-77
2022/06/30 04:09:55;;;;;;;1.35;1.05;;;;;;;16.30;42.47;101285.53;5010987;28;20041;-76
2022/06/30 04:12:20;;;;;;;5.68;1.58;;;;;;;16.41;42.23;101287.56;5021268;28;20526;-78
2022/06/30 04:14:46;;;;;;;6.07;1.33;;;;;;;16.34;42.38;101281.78;5017302;28;20022;-77
2022/06/30 04:17:11;;;;;;;1.73;1.27;;;;;;;16.41;42.23;101272.56;4995342;28;20141;-77
2022/06/30 04:19:37;;;;;;;1.50;1.38;;;;;;;16.48;42.31;101277.50;4996765;28;20042;-77
2022/06/30 04:22:04;;;;;;;2.22;1.40;;;;;;;16.57;42.10;101269.03;4992458;28;20037;-77
2022/06/30 04:24:29;;;;;;;1.85;1.15;;;;;;;16.65;42.28;101265.94;4994089;28;20048;-76
2022/06/30 04:26:55;;;;;;;3.90;1.27;;;;;;;16.72;42.00;101268.13;4995011;28;20041;-78
2022/06/30 04:29:20;;;;;;;4.30;0.95;;;;;;;16.82;42.24;101268.44;4995775;28;20045;-75
2022/06/30 04:34:30;;;;;;;4.63;1.38;;;;;;;16.86;42.16;101269.13;5009087;28;20038;-76
2022/06/30 04:36:55;;;;;;;1.65;1.02;;;;;;;16.87;42.57;101268.16;4994648;28;20052;-76
2022/06/30 04:39:21;;;;;;;1.70;1.35;;;;;;;16.94;42.45;101274.78;4995072;28;20042;-76
2022/06/30 04:41:47;;;;;;;3.67;1.88;;;;;;;16.94;42.58;101272.16;4992861;28;20802;-76
2022/06/30 04:44:13;;;;;;;2.22;1.23;;;;;;;17.05;42.66;101274.97;4991984;28;20040;-78
2022/06/30 04:46:38;;;;;;;5.55;1.17;;;;;;;17.18;42.57;101270.66;4991367;28;20888;-76
2022/06/30 04:49:04;;;;;;;2.72;0.82;;;;;;;17.35;42.31;101271.38;5013689;28;20257;-77
2022/06/30 04:51:29;;;;;;;7.00;1.45;;;;;;;17.39;42.13;101262.31;4996866;28;20036;-77
2022/06/30 04:53:55;;;;;;;3.53;1.55;;;;;;;17.42;42.04;101262.94;4989672;28;20085;-77
2022/06/30 04:56:21;;;;;;;2.00;1.45;;;;;;;17.33;42.33;101262.69;4995740;28;20500;-76
2022/06/30 04:58:46;;;;;;;1.98;1.30;;;;;;;17.49;42.26;101268.72;5007440;28;20368;-78
2022/06/30 05:01:12;;;;;;;4.63;1.40;;;;;;;17.61;42.30;101257.41;4980726;28;20639;-77
2022/06/30 05:03:38;;;;;;;3.35;1.23;;;;;;;17.82;42.09;101260.44;4994615;28;20050;-78
2022/06/30 05:06:05;;;;;;;2.50;1.52;;;;;;;18.34;40.97;101269.44;5012507;28;20034;-76
2022/06/30 05:08:32;;;;;;;6.85;1.45;;;;;;;18.93;40.08;101258.41;4997872;28;20095;-77
2022/06/30 05:10:58;;;;;;;5.38;1.33;;;;;;;20.45;36.49;101255.34;4996485;28;20516;-78
2022/06/30 05:13:23;;;;;;;3.42;1.15;;;;;;;21.49;34.40;101261.47;4999599;28;20060;-77
2022/06/30 05:15:49;;;;;;;12.43;2.20;;;;;;;21.90;32.98;101254.63;4999826;28;20557;-78
2022/06/30 05:18:15;;;;;;;16.30;3.75;;;;;;;21.43;34.17;101261.97;4998688;28;20089;-76
2022/06/30 05:20:41;;;;;;;38.05;5.13;;;;;;;20.83;35.02;101259.53;4997224;28;20030;-75
2022/06/30 05:23:08;;;;;;;18.50;2.95;;;;;;;19.87;36.65;101260.53;4994504;28;20121;-77
2022/06/30 05:28:18;;;;;;;13.05;2.25;;;;;;;19.58;37.76;101244.09;4998266;28;20288;-76
2022/06/30 05:30:44;;;;;;;5.68;1.48;;;;;;;19.67;36.98;101248.72;4997519;28;20064;-80
2022/06/30 05:33:10;;;;;;;21.35;3.42;;;;;;;19.98;36.50;101246.47;4997438;28;20180;-78
2022/06/30 05:35:35;;;;;;;5.53;1.70;;;;;;;20.02;35.99;101242.66;4984354;28;20064;-76
2022/06/30 05:38:01;;;;;;;3.20;1.55;;;;;;;22.32;32.09;101242.22;4998010;28;20046;-75
2022/06/30 05:40:27;;;;;;;12.27;2.80;;;;;;;24.01;29.32;101237.25;5012177;28;20026;-77
2022/06/30 05:42:53;;;;;;;1.98;0.82;;;;;;;25.42;27.15;101229.25;4993868;28;20046;-78
2022/06/30 05:45:19;;;;;;;2.78;1.00;;;;;;;26.19;26.28;101235.00;4981772;28;20056;-77
2022/06/30 05:47:50;;;;;;;2.05;1.55;;;;;;;25.50;26.33;101233.00;4996797;28;20045;-79
2022/06/30 05:50:16;;;;;;;2.58;1.20;;;;;;;24.03;29.02;101236.13;5016209;28;20053;-76
2022/06/30 05:52:42;;;;;;;3.28;1.52;;;;;;;23.53;29.26;101236.22;4978524;28;23895;-77
2022/06/30 05:55:09;;;;;;;2.72;1.10;;;;;;;22.58;31.29;101232.03;4995677;28;20377;-76
2022/06/30 05:57:52;;;;;;;2.05;1.13;;;;;;;21.88;33.09;101240.59;4999530;28;20036;-77
2022/06/30 06:00:19;;;;;;;4.18;1.67;;;;;;;21.56;32.95;101231.63;4999090;28;20061;-77
2022/06/30 06:02:45;;;;;;;5.25;1.00;;;;;;;21.52;33.56;101232.00;4998188;28;20064;-78
2022/06/30 06:05:11;;;;;;;1.90;1.23;;;;;;;21.48;34.00;101230.56;5012496;28;20495;-79
2022/06/30 06:07:37;;;;;;;2.13;1.40;;;;;;;22.61;32.47;101228.25;4999524;28;20137;-76
2022/06/30 06:10:03;;;;;;;4.05;1.23;;;;;;;24.51;28.56;101222.88;4997606;28;20129;-76
2022/06/30 06:12:29;;;;;;;2.38;1.10;;;;;;;25.36;27.62;101224.47;4981477;28;20041;-79
2022/06/30 06:14:55;;;;;;;2.35;0.88;;;;;;;25.43;27.20;101230.06;4981984;28;20412;-77
2022/06/30 06:17:20;;;;;;;3.10;1.20;;;;;;;26.69;25.37;101225.47;4999735;28;20034;-78
2022/06/30 06:19:46;;;;;;;1.02;0.52;;;;;;;27.19;24.75;101226.56;4997300;28;20461;-76
2022/06/30 06:22:11;;;;;;;4.82;1.58;;;;;;;26.60;25.33;101221.06;5009776;28;20707;-80
2022/06/30 06:24:37;;;;;;;4.57;0.95;;;;;;;26.99;24.92;101225.94;5003076;28;20571;-80
2022/06/30 06:27:03;;;;;;;3.33;1.23;;;;;;;27.64;24.09;101225.34;5001694;28;20087;-78
2022/06/30 06:29:29;;;;;;;7.78;1.52;;;;;;;25.78;25.89;101231.13;4998669;28;20042;-80
2022/06/30 06:31:55;;;;;;;2.30;1.05;;;;;;;25.93;26.16;101223.38;4980677;28;20594;-78
2022/06/30 06:34:21;;;;;;;2.78;1.23;;;;;;;24.76;27.87;101230.25;4996750;28;20037;-78
2022/06/30 06:36:46;;;;;;;2.55;0.95;;;;;;;24.39;28.65;101239.03;4980996;28;20060;-77
2022/06/30 06:39:12;;;;;;;3.17;1.25;;;;;;;25.87;26.83;101230.22;5009736;28;20068;-78
2022/06/30 06:41:37;;;;;;;1.85;1.10;;;;;;;27.14;24.31;101234.22;4996569;28;20048;-77
2022/06/30 06:44:03;;;;;;;2.22;0.85;;;;;;;27.38;24.53;101231.63;4996929;28;20495;-78
2022/06/30 06:46:29;;;;;;;1.10;0.80;;;;;;;27.66;23.51;101224.16;4998892;28;20085;-80
2022/06/30 06:48:59;;;;;;;2.30;0.75;;;;;;;28.10;23.10;101220.31;5011135;28;20835;-79
2022/06/30 06:51:24;;;;;;;4.07;1.42;;;;;;;28.82;21.85;101219.53;4996515;28;20034;-80
2022/06/30 06:53:50;;;;;;;3.20;1.17;;;;;;;28.65;21.84;101213.38;4994826;28;20081;-77
2022/06/30 06:56:15;;;;;;;2.25;0.70;;;;;;;29.73;21.11;101209.97;4997803;28;20104;-77
2022/06/30 06:58:41;;;;;;;2.05;0.85;;;;;;;30.75;19.64;101214.88;4994331;28;20282;-77
2022/06/30 07:01:06;;;;;;;3.85;0.85;;;;;;;30.97;19.56;101210.38;4997233;28;20073;-79
2022/06/30 07:03:32;;;;;;;5.38;1.13;;;;;;;31.33;18.77;101220.38;4979098;28;20052;-78
2022/06/30 07:05:58;;;;;;;1.38;0.60;;;;;;;30.57;19.37;101223.34;4997010;28;20030;-78
2022/06/30 07:08:24;;;;;;;1.08;0.60;;;;;;;29.81;20.68;101233.31;4998445;28;20120;-78
2022/06/30 07:10:50;;;;;;;6.53;0.93;;;;;;;29.63;20.70;101233.59;4978258;28;20069;-78
2022/06/30 07:13:15;;;;;;;3.50;0.77;;;;;;;30.16;20.19;101230.00;4978886;28;20046;-80
2022/06/30 07:15:41;;;;;;;4.50;0.82;;;;;;;30.79;19.91;101230.50;4995741;28;20045;-78
2022/06/30 07:18:07;;;;;;;3.78;0.88;;;;;;;30.23;19.97;101230.09;4995200;28;20053;-80
2022/06/30 07:20:33;;;;;;;2.42;0.60;;;;;;;30.02;20.12;101224.53;5011705;28;20034;-80
2022/06/30 07:22:58;;;;;;;1.20;0.80;;;;;;;29.90;20.58;101227.66;4995767;28;20034;-80
2022/06/30 07:25:24;;;;;;;3.45;2.35;;;;;;;30.70;19.84;101218.16;4996416;28;20036;-80
2022/06/30 07:27:50;;;;;;;2.50;1.05;;;;;;;31.51;19.46;101228.06;4995543;28;20125;-80
2022/06/30 07:30:16;;;;;;;2.70;0.77;;;;;;;31.30;18.85;101227.00;4977125;28;20075;-76
2022/06/30 07:32:42;;;;;;;2.10;0.63;;;;;;;30.28;19.38;101233.06;4977508;28;20033;-78
2022/06/30 07:35:07;;;;;;;1.83;0.70;;;;;;;31.73;18.60;101237.00;4992496;28;20339;-77
2022/06/30 07:37:38;;;;;;;1.00;0.50;;;;;;;30.22;19.80;101239.22;4999243;28;20041;-80
2022/06/30 07:40:05;;;;;;;2.10;0.77;;;;;;;28.04;22.68;101237.13;4989848;28;20045;-78
2022/06/30 07:42:30;;;;;;;2.92;0.70;;;;;;;26.77;23.43;101238.09;4980622;28;20285;-80
2022/06/30 07:44:55;;;;;;;3.67;0.90;;;;;;;25.93;24.95;101239.44;4992384;28;20030;-77
2022/06/30 07:47:22;;;;;;;3.45;0.57;;;;;;;25.81;25.92;101236.16;4993887;28;20030;-78
2022/06/30 07:49:48;;;;;;;2.15;0.40;;;;;;;26.36;24.43;101229.75;4974288;28;20041;-78
2022/06/30 07:52:14;;;;;;;5.53;0.90;;;;;;;28.52;22.45;101228.19;4990734;28;20371;-78
2022/06/30 07:54:40;;;;;;;2.33;0.60;;;;;;;29.18;21.36;101224.44;4994661;28;20089;-77
2022/06/30 07:57:05;;;;;;;2.65;0.68;;;;;;;28.50;21.96;101232.88;4997706;28;20053;-77
2022/06/30 07:59:31;;;;;;;1.38;0.30;;;;;;;29.54;21.01;101225.53;5010370;28;20073;-76
2022/06/30 08:01:57;;;;;;;0.63;0.30;;;;;;;30.47;20.02;101220.91;4994826;28;20736;-77
2022/06/30 08:04:22;;;;;;;0.77;0.40;;;;;;;30.95;19.31;101223.22;4998048;28;20125;-79
2022/06/30 08:06:48;;;;;;;1.52;0.40;;;;;;;29.70;20.61;101229.16;4993257;28;20089;-77
2022/06/30 08:09:13;;;;;;;3.85;0.52;;;;;;;28.13;22.49;101228.06;4995305;28;20494;-78
2022/06/30 08:11:40;;;;;;;1.05;0.52;;;;;;;28.32;22.51;101221.47;5011240;28;20033;-78
2022/06/30 08:14:05;;;;;;;1.45;0.80;;;;;;;29.53;21.17;101223.06;4989629;28;20045;-77
2022/06/30 08:16:31;;;;;;;1.23;0.60;;;;;;;30.89;20.42;101213.19;5008520;28;20883;-79
2022/06/30 08:18:56;;;;;;;2.83;0.47;;;;;;;31.06;19.02;101209.28;4973411;28;20045;-78
2022/06/30 08:21:22;;;;;;;1.23;0.88;;;;;;;31.38;19.28;101207.13;5006161;28;20046;-78
2022/06/30 08:23:47;;;;;;;4.55;0.68;;;;;;;32.26;18.54;101212.31;4992305;28;20042;-78
2022/06/30 08:26:13;;;;;;;6.47;0.70;;;;;;;32.01;18.90;101210.06;4989905;28;20484;-79
2022/06/30 08:28:38;;;;;;;3.58;0.70;;;;;;;31.30;19.30;101215.38;4992739;28;20052;-79
2022/06/30 08:31:04;;;;;;;8.57;0.85;;;;;;;31.10;19.37;101205.19;4991087;28;20736;-78
2022/06/30 08:33:29;;;;;;;3.42;0.68;;;;;;;31.15;19.12;101199.19;4991965;28;20038;-79
2022/06/30 08:35:55;;;;;;;3.08;1.23;;;;;;;31.17;18.95;101203.38;4991905;28;20685;-79
2022/06/30 08:38:23;;;;;;;2.90;0.93;;;;;;;30.47;20.12;101204.72;4992278;28;20149;-78
2022/06/30 08:43:34;;;;;;;1.70;0.60;;;;;;;30.90;20.06;101212.16;4996155;28;20267;-78
2022/06/30 08:46:01;;;;;;;1.25;0.70;;;;;;;30.94;19.73;101206.22;5009990;28;20386;-80
2022/06/30 08:48:28;;;;;;;2.42;0.70;;;;;;;30.26;20.80;101212.72;4997698;28;20316;-77
2022/06/30 08:50:59;;;;;;;2.20;0.57;;;;;;;30.44;20.95;101215.03;4978510;28;20128;-77
2022/06/30 08:53:28;;;;;;;;;;;;;;;30.32;21.72;101210.13;4993414;28;20412;-78
2022/06/30 08:55:54;;;;;;;3.30;1.02;;;;;;;30.49;21.50;101213.47;5009589;28;19976;-78
2022/06/30 08:58:21;;;;;;;2.72;0.73;;;;;;;31.33;19.51;101207.69;4994462;28;20095;-79
2022/06/30 09:00:46;;;;;;;3.95;0.75;;;;;;;31.55;19.47;101216.69;4994551;28;20519;-79
2022/06/30 09:03:12;;;;;;;1.52;0.65;;;;;;;31.53;19.20;101220.59;4974993;28;20053;-80
2022/06/30 09:05:39;;;;;;;1.33;0.93;;;;;;;30.96;19.93;101209.56;5008910;28;20049;-78
2022/06/30 09:08:05;;;;;;;2.45;1.02;;;;;;;31.08;20.01;101209.94;4995192;28;20052;-76
2022/06/30 09:10:30;;;;;;;7.25;1.15;;;;;;;31.62;20.45;101208.63;4998724;28;20026;-79
2022/06/30 09:13:02;;;;;;;2.90;0.50;;;;;;;31.24;19.57;101216.13;5010611;28;20045;-79
2022/06/30 09:15:30;;;;;;;2.17;0.93;;;;;;;31.14;19.21;101217.28;4979865;28;20041;-77
2022/06/30 09:17:56;;;;;;;2.05;0.63;;;;;;;30.97;19.30;101221.19;4978953;28;20060;-77
2022/06/30 09:20:36;;;;;;;2.78;0.90;;;;;;;30.70;20.12;101210.03;4997055;28;20575;-80
2022/06/30 09:23:22;;;;;;;3.22;0.65;;;;;;;30.71;19.84;101213.56;4996475;28;20516;-80
2022/06/30 09:25:51;;;;;;;0.77;0.40;;;;;;;30.39;19.87;101219.13;4999157;28;20041;-81
2022/06/30 09:28:45;;;;;;;0.85;0.65;;;;;;;29.77;20.27;101206.75;4984741;28;20065;-76
2022/06/30 09:31:13;;;;;;;1.30;0.60;;;;;;;29.91;21.04;101210.50;4998420;28;20041;-77
2022/06/30 09:33:41;;;;;;;1.83;0.90;;;;;;;29.92;20.70;101211.31;4980983;28;20133;-78
2022/06/30 09:36:24;;;;;;;2.80;0.73;;;;;;;30.22;20.50;101206.88;5000144;28;20179;-79
2022/06/30 09:39:09;;;;;;;0.90;0.68;;;;;;;30.51;21.12;101202.47;4996111;28;20084;-78
2022/06/30 09:41:41;;;;;;;1.20;0.60;;;;;;;30.35;20.19;101201.63;4999273;28;20066;-82
2022/06/30 09:44:17;;;;;;;1.30;1.02;;;;;;;29.79;21.65;101201.16;4994142;28;20543;-80
2022/06/30 09:47:00;;;;;;;1.55;0.80;;;;;;;29.73;21.55;101205.41;4999105;28;20065;-78
2022/06/30 09:49:42;;;;;;;1.48;0.85;;;;;;;28.57;22.66;101202.59;4997812;28;20049;-78
2022/06/30 09:52:25;;;;;;;3.22;1.00;;;;;;;27.92;24.55;101189.09;4984328;28;20041;-76
2022/06/30 09:55:05;;;;;;;2.30;1.10;;;;;;;27.97;23.74;101193.13;4996745;28;20042;-77
2022/06/30 09:57:35;;;;;;;7.25;1.27;;;;;;;27.68;24.81;101194.47;4980499;28;20033;-76
2022/06/30 10:00:07;;;;;;;1.35;0.85;;;;;;;27.18;24.57;101190.81;4981952;28;20048;-78
2022/06/30 10:02:41;;;;;;;3.28;1.15;;;;;;;27.10;24.38;101191.66;4999000;28;20038;-76
2022/06/30 10:05:08;;;;;;;0.80;0.73;;;;;;;26.26;25.43;101184.31;4998662;28;20959;-79
2022/06/30 10:07:35;;;;;;;2.08;1.08;;;;;;;26.31;26.01;101183.84;4999440;28;20061;-79
2022/06/30 10:10:04;;;;;;;6.60;1.70;;;;;;;26.45;26.47;101185.97;4999191;28;20042;-78
2022/06/30 10:12:30;;;;;;;1.58;0.93;;;;;;;26.45;26.47;101189.47;4983020;28;20061;-77
2022/06/30 10:14:56;;;;;;;1.17;0.82;;;;;;;26.46;26.63;101192.97;4995107;28;20079;-77
2022/06/30 10:17:25;;;;;;;2.00;0.85;;;;;;;26.74;26.62;101187.44;4998272;28;20029;-78
2022/06/30 10:19:52;;;;;;;3.92;1.45;;;;;;;27.17;25.48;101185.63;4977413;28;20054;-76
2022/06/30 10:22:19;;;;;;;2.70;1.70;;;;;;;26.80;25.91;101192.16;4985049;28;20050;-80
2022/06/30 10:24:46;;;;;;;2.90;0.82;;;;;;;26.97;26.63;101185.88;4996919;28;20049;-80
2022/06/30 10:27:12;;;;;;;3.70;1.52;;;;;;;27.04;25.71;101186.06;4998448;28;20056;-76
2022/06/30 10:29:40;;;;;;;3.08;1.15;;;;;;;26.93;26.09;101186.38;4995843;28;20038;-77
2022/06/30 10:32:20;;;;;;;3.53;1.23;;;;;;;26.77;25.90;101187.16;4983079;28;20041;-76
2022/06/30 10:34:55;;;;;;;2.83;1.00;;;;;;;27.73;25.34;101182.22;4995887;28;20080;-79
2022/06/30 10:37:25;;;;;;;2.20;1.35;;;;;;;28.37;24.73;101180.63;4994515;28;20061;-78
2022/06/30 10:39:55;;;;;;;1.27;0.90;;;;;;;28.04;24.05;101191.44;4980894;28;20046;-76
2022/06/30 10:42:44;;;;;;;1.20;0.80;;;;;;;28.29;23.87;101187.72;5012261;28;20119;-78
2022/06/30 10:45:28;;;;;;;4.63;1.13;;;;;;;28.73;24.31;101181.91;5000826;28;21049;-78
2022/06/30 10:47:58;;;;;;;1.00;0.80;;;;;;;28.87;22.97;101182.19;4997694;28;20057;-80
2022/06/30 10:50:42;;;;;;;1.23;0.85;;;;;;;28.34;24.37;101182.69;5000605;28;20034;-79
2022/06/30 10:53:10;;;;;;;1.58;0.80;;;;;;;28.62;23.59;101176.91;4995272;28;20152;-80
2022/06/30 10:55:41;;;;;;;2.42;1.30;;;;;;;28.50;24.32;101181.81;5011950;28;20049;-78
2022/06/30 10:58:08;;;;;;;2.67;1.65;;;;;;;28.91;24.19;101175.44;4971125;28;20046;-79
2022/06/30 11:00:47;;;;;;;2.28;1.08;;;;;;;28.78;23.50;101175.16;5010096;28;20037;-79
2022/06/30 11:03:34;;;;;;;3.20;1.23;;;;;;;29.04;22.94;101170.31;4995239;28;20046;-78
2022/06/30 11:06:13;;;;;;;1.02;0.93;;;;;;;29.01;24.05;101176.03;4975817;28;20437;-74
2022/06/30 11:08:39;;;;;;;3.05;1.65;;;;;;;28.85;23.85;101176.13;4977348;28;20052;-78
2022/06/30 11:11:19;;;;;;;2.80;1.45;;;;;;;28.44;23.71;101184.34;4994628;28;20519;-77
2022/06/30 11:13:49;;;;;;;1.15;1.00;;;;;;;28.61;23.50;101169.81;4993848;28;20048;-80
2022/06/30 11:16:16;;;;;;;1.70;1.30;;;;;;;28.87;24.38;101164.19;4993005;28;20040;-76
2022/06/30 11:18:42;;;;;;;8.77;1.23;;;;;;;28.67;23.80;101179.06;4994051;28;20038;-80
2022/06/30 11:21:08;;;;;;;7.28;1.77;;;;;;;29.32;23.30;101167.16;4990321;28;20393;-76
2022/06/30 11:23:46;;;;;;;1.55;0.80;;;;;;;28.97;24.09;101177.44;4993339;28;20052;-78
2022/06/30 11:29:00;;;;;;;2.55;1.30;;;;;;;29.39;23.58;101157.34;4991769;28;20332;-79
2022/06/30 11:31:30;;;;;;;5.30;1.20;;;;;;;28.75;23.61;101154.84;4995069;28;20030;-77
2022/06/30 11:34:18;;;;;;;1.50;1.25;;;;;;;28.92;23.56;101150.19;4991136;28;20845;-78
2022/06/30 11:36:44;;;;;;;1.90;1.10;;;;;;;29.07;23.76;101153.00;4978618;28;20119;-81
2022/06/30 11:39:17;;;;;;;6.57;1.30;;;;;;;28.93;24.04;101146.53;4978090;28;20057;-79
2022/06/30 11:42:06;;;;;;;1.17;1.00;;;;;;;28.64;24.18;101149.84;4994741;28;20042;-79